Time,TemperatureF,DewpointF,PressureIn,WindDirection,WindDirectionDegrees,WindSpeedMPH,WindSpeedGustMPH,Humidity,HourlyPrecipIn,Conditions,Clouds,dailyrainin,SoftwareType,DateUTC
2013-05-28 00:04:00,53.0,43.0,30.19,SW,225,0.0,0.0,70,0.00,,,0.00,TxWx,2013-05-28 04:04:00,
2013-05-28 00:09:00,53.0,44.0,30.19,SW,225,0.0,1.0,71,0.00,,,0.00,TxWx,2013-05-28 04:09:00,
2013-05-28 00:14:00,52.0,43.0,30.19,SSE,157,0.0,0.0,72,0.00,,,0.00,TxWx,2013-05-28 04:14:00,
2013-05-28 00:19:00,52.0,43.0,30.19,WNW,292,0.0,0.0,71,0.00,,,0.00,TxWx,2013-05-28 04:19:00,
2013-05-28 00:20:00,59.0,49.0,30.21,East,90,1.0,2.0,70,0.00,,,0.00,TxWx,2013-05-28 04:20:00,
2013-05-28 00:21:00,59.0,49.0,30.21,ESE,112,2.0,2.0,69,0.00,,,0.00,TxWx,2013-05-28 04:21:00,
2013-05-28 00:24:00,52.0,43.0,30.19,SSW,202,0.0,0.0,71,0.00,,,0.00,TxWx,2013-05-28 04:24:00,
2013-05-28 00:33:00,51.0,43.0,30.19,West,270,0.0,0.0,71,0.00,,,0.00,TxWx,2013-05-28 04:33:00,
2013-05-28 00:38:00,51.0,42.0,30.19,SW,225,0.0,0.0,71,0.00,,,0.00,TxWx,2013-05-28 04:38:00,
2013-05-28 00:43:00,51.0,42.0,30.19,NE,45,0.0,0.0,71,0.00,,,0.00,TxWx,2013-05-28 04:43:00,
2013-05-28 00:49:00,51.0,42.0,30.19,SSW,202,2.0,2.0,73,0.00,,,0.00,TxWx,2013-05-28 04:49:00,
2013-05-28 00:54:00,51.0,43.0,30.19,NE,45,3.0,3.0,73,0.00,,,0.00,TxWx,2013-05-28 04:54:00,
2013-05-28 00:59:00,51.0,44.0,30.19,NNE,22,0.0,0.0,76,0.00,,,0.00,TxWx,2013-05-28 04:59:00,
2013-05-28 01:04:00,50.0,43.0,30.19,NNW,337,0.0,0.0,78,0.00,,,0.00,TxWx,2013-05-28 05:04:00,
2013-05-28 01:10:00,50.0,44.0,30.19,South,180,0.0,0.0,79,0.00,,,0.00,TxWx,2013-05-28 05:10:00,
2013-05-28 01:15:00,50.0,44.0,30.20,South,180,0.0,0.0,79,0.00,,,0.00,TxWx,2013-05-28 05:15:00,
2013-05-28 01:20:00,49.0,43.0,30.20,South,180,0.0,0.0,79,0.00,,,0.00,TxWx,2013-05-28 05:20:00,
2013-05-28 01:25:00,49.0,43.0,30.20,ESE,112,0.0,0.0,80,0.00,,,0.00,TxWx,2013-05-28 05:25:00,
2013-05-28 01:30:00,49.0,43.0,30.20,ESE,112,0.0,0.0,80,0.00,,,0.00,TxWx,2013-05-28 05:30:00,
2013-05-28 01:35:00,49.0,43.0,30.20,SSW,202,0.0,0.0,80,0.00,,,0.00,TxWx,2013-05-28 05:35:00,
2013-05-28 01:40:00,49.0,43.0,30.20,South,180,0.0,0.0,81,0.00,,,0.00,TxWx,2013-05-28 05:40:00,
2013-05-28 01:45:00,49.0,43.0,30.20,SSE,157,0.0,0.0,81,0.00,,,0.00,TxWx,2013-05-28 05:45:00,
2013-05-28 01:46:00,64.0,47.0,30.20,East,90,4.0,4.0,54,0.00,,,0.00,TxWx,2013-05-28 05:46:00,
2013-05-28 01:50:00,48.0,42.0,30.20,South,180,0.0,0.0,81,0.00,,,0.00,TxWx,2013-05-28 05:50:00,
2013-05-28 01:55:00,48.0,42.0,30.20,SSE,157,0.0,0.0,81,0.00,,,0.00,TxWx,2013-05-28 05:55:00,
2013-05-28 02:00:00,48.0,42.0,30.20,SE,135,0.0,0.0,81,0.00,,,0.00,TxWx,2013-05-28 06:00:00,
2013-05-28 02:05:00,48.0,43.0,30.20,SE,135,0.0,0.0,82,0.00,,,0.00,TxWx,2013-05-28 06:05:00,
2013-05-28 02:15:00,48.0,43.0,30.20,East,90,0.0,0.0,82,0.00,,,0.00,TxWx,2013-05-28 06:15:00,
2013-05-28 02:21:00,48.0,43.0,30.20,SSE,157,0.0,0.0,83,0.00,,,0.00,TxWx,2013-05-28 06:21:00,
2013-05-28 02:26:00,48.0,43.0,30.20,East,90,0.0,0.0,84,0.00,,,0.00,TxWx,2013-05-28 06:26:00,
2013-05-28 02:31:00,48.0,43.0,30.20,NE,45,0.0,0.0,84,0.00,,,0.00,TxWx,2013-05-28 06:31:00,
2013-05-28 02:36:00,48.0,44.0,30.20,NE,45,0.0,0.0,85,0.00,,,0.00,TxWx,2013-05-28 06:36:00,
2013-05-28 02:41:00,47.0,43.0,30.20,North,0,0.0,0.0,85,0.00,,,0.00,TxWx,2013-05-28 06:41:00,
2013-05-28 02:47:00,47.0,43.0,30.20,North,0,0.0,0.0,86,0.00,,,0.00,TxWx,2013-05-28 06:47:00,
2013-05-28 02:52:00,47.0,43.0,30.20,SSE,157,0.0,0.0,86,0.00,,,0.00,TxWx,2013-05-28 06:52:00,
2013-05-28 02:57:00,47.0,43.0,30.20,SSW,202,0.0,0.0,87,0.00,,,0.00,TxWx,2013-05-28 06:57:00,
2013-05-28 03:02:00,47.0,43.0,30.19,ENE,67,0.0,0.0,87,0.00,,,0.00,TxWx,2013-05-28 07:02:00,
2013-05-28 03:07:00,47.0,43.0,30.20,ENE,67,0.0,0.0,88,0.00,,,0.00,TxWx,2013-05-28 07:07:00,
2013-05-28 03:12:00,46.0,42.0,30.19,ESE,112,0.0,0.0,88,0.00,,,0.00,TxWx,2013-05-28 07:12:00,
2013-05-28 03:17:00,46.0,43.0,30.20,ESE,112,0.0,0.0,88,0.00,,,0.00,TxWx,2013-05-28 07:17:00,
2013-05-28 03:22:00,46.0,43.0,30.19,NE,45,0.0,0.0,88,0.00,,,0.00,TxWx,2013-05-28 07:22:00,
2013-05-28 03:27:00,46.0,43.0,30.20,ESE,112,0.0,0.0,89,0.00,,,0.00,TxWx,2013-05-28 07:27:00,
2013-05-28 03:32:00,46.0,43.0,30.20,SE,135,0.0,0.0,89,0.00,,,0.00,TxWx,2013-05-28 07:32:00,
2013-05-28 03:37:00,46.0,43.0,30.20,SE,135,0.0,0.0,89,0.00,,,0.00,TxWx,2013-05-28 07:37:00,
2013-05-28 03:42:00,46.0,43.0,30.20,SE,135,0.0,0.0,90,0.00,,,0.00,TxWx,2013-05-28 07:42:00,
2013-05-28 03:47:00,46.0,43.0,30.20,SE,135,0.0,0.0,90,0.00,,,0.00,TxWx,2013-05-28 07:47:00,
2013-05-28 03:52:00,46.0,43.0,30.20,SE,135,0.0,0.0,91,0.00,,,0.00,TxWx,2013-05-28 07:52:00,
2013-05-28 03:57:00,45.0,43.0,30.20,East,90,0.0,0.0,91,0.00,,,0.00,TxWx,2013-05-28 07:57:00,
2013-05-28 04:02:00,45.0,43.0,30.20,ENE,67,0.0,0.0,92,0.00,,,0.00,TxWx,2013-05-28 08:02:00,
2013-05-28 04:08:00,45.0,43.0,30.21,East,90,0.0,0.0,92,0.00,,,0.00,TxWx,2013-05-28 08:08:00,
2013-05-28 04:13:00,45.0,43.0,30.20,NE,45,0.0,0.0,92,0.00,,,0.00,TxWx,2013-05-28 08:13:00,
2013-05-28 04:18:00,45.0,43.0,30.20,ENE,67,0.0,0.0,92,0.00,,,0.00,TxWx,2013-05-28 08:18:00,
2013-05-28 04:23:00,45.0,43.0,30.21,NE,45,0.0,0.0,93,0.00,,,0.00,TxWx,2013-05-28 08:23:00,
2013-05-28 04:28:00,45.0,43.0,30.21,ENE,67,0.0,0.0,93,0.00,,,0.00,TxWx,2013-05-28 08:28:00,
2013-05-28 04:33:00,45.0,43.0,30.22,East,90,0.0,0.0,94,0.00,,,0.00,TxWx,2013-05-28 08:33:00,
2013-05-28 04:38:00,45.0,43.0,30.22,SSE,157,0.0,0.0,94,0.00,,,0.00,TxWx,2013-05-28 08:38:00,
2013-05-28 04:43:00,45.0,44.0,30.21,WSW,247,0.0,0.0,95,0.00,,,0.00,TxWx,2013-05-28 08:43:00,
2013-05-28 04:48:00,45.0,44.0,30.21,NNW,337,0.0,0.0,95,0.00,,,0.00,TxWx,2013-05-28 08:48:00,
2013-05-28 04:53:00,45.0,44.0,30.21,SSW,202,0.0,0.0,95,0.00,,,0.00,TxWx,2013-05-28 08:53:00,
2013-05-28 04:58:00,44.0,43.0,30.22,SE,135,0.0,0.0,96,0.00,,,0.00,TxWx,2013-05-28 08:58:00,
2013-05-28 05:03:00,44.0,43.0,30.22,SE,135,0.0,0.0,96,0.00,,,0.00,TxWx,2013-05-28 09:03:00,
2013-05-28 05:08:00,44.0,43.0,30.22,South,180,0.0,0.0,96,0.00,,,0.00,TxWx,2013-05-28 09:08:00,
2013-05-28 05:13:00,44.0,43.0,30.22,South,180,0.0,0.0,97,0.00,,,0.00,TxWx,2013-05-28 09:13:00,
2013-05-28 05:18:00,44.0,43.0,30.22,SE,135,0.0,0.0,97,0.00,,,0.00,TxWx,2013-05-28 09:18:00,
2013-05-28 05:23:00,44.0,43.0,30.22,North,0,0.0,0.0,97,0.00,,,0.00,TxWx,2013-05-28 09:23:00,
2013-05-28 05:29:00,44.0,43.0,30.22,NE,45,0.0,0.0,97,0.00,,,0.00,TxWx,2013-05-28 09:29:00,
2013-05-28 05:34:00,44.0,43.0,30.23,SSW,202,0.0,0.0,97,0.00,,,0.00,TxWx,2013-05-28 09:34:00,
2013-05-28 05:39:00,44.0,43.0,30.23,SSE,157,0.0,0.0,98,0.00,,,0.00,TxWx,2013-05-28 09:39:00,
2013-05-28 05:44:00,44.0,43.0,30.23,ESE,112,0.0,0.0,98,0.00,,,0.00,TxWx,2013-05-28 09:44:00,
2013-05-28 05:49:00,44.0,43.0,30.23,ESE,112,0.0,0.0,98,0.00,,,0.00,TxWx,2013-05-28 09:49:00,
2013-05-28 05:54:00,44.0,43.0,30.23,East,90,0.0,0.0,98,0.00,,,0.00,TxWx,2013-05-28 09:54:00,
2013-05-28 05:59:00,45.0,44.0,30.23,East,90,0.0,0.0,98,0.00,,,0.00,TxWx,2013-05-28 09:59:00,
2013-05-28 06:04:00,45.0,44.0,30.23,ESE,112,0.0,0.0,98,0.00,,,0.00,TxWx,2013-05-28 10:04:00,
2013-05-28 06:09:00,45.0,45.0,30.23,ESE,112,0.0,0.0,99,0.00,,,0.00,TxWx,2013-05-28 10:09:00,
2013-05-28 06:14:00,45.0,45.0,30.23,ESE,112,0.0,0.0,99,0.00,,,0.00,TxWx,2013-05-28 10:14:00,
2013-05-28 06:19:00,45.0,45.0,30.23,NE,45,0.0,0.0,99,0.00,,,0.00,TxWx,2013-05-28 10:19:00,
2013-05-28 06:24:00,45.0,45.0,30.23,ENE,67,0.0,0.0,99,0.00,,,0.00,TxWx,2013-05-28 10:24:00,
2013-05-28 06:29:00,46.0,46.0,30.23,SE,135,0.0,0.0,99,0.00,,,0.00,TxWx,2013-05-28 10:29:00,
2013-05-28 06:34:00,46.0,46.0,30.23,SE,135,0.0,0.0,99,0.00,,,0.00,TxWx,2013-05-28 10:34:00,
2013-05-28 06:39:00,47.0,47.0,30.23,East,90,0.0,0.0,99,0.00,,,0.00,TxWx,2013-05-28 10:39:00,
2013-05-28 06:45:00,47.0,47.0,30.24,East,90,0.0,0.0,99,0.00,,,0.00,TxWx,2013-05-28 10:45:00,
2013-05-28 06:50:00,47.0,47.0,30.23,NE,45,2.0,3.0,99,0.00,,,0.00,TxWx,2013-05-28 10:50:00,
2013-05-28 06:55:00,47.0,47.0,30.23,ENE,67,2.0,2.0,99,0.00,,,0.00,TxWx,2013-05-28 10:55:00,
2013-05-28 07:00:00,48.0,48.0,30.23,East,90,0.0,0.0,99,0.00,,,0.00,TxWx,2013-05-28 11:00:00,
2013-05-28 07:05:00,48.0,48.0,30.23,NE,45,1.0,1.0,99,0.00,,,0.00,TxWx,2013-05-28 11:05:00,
2013-05-28 07:10:00,48.0,48.0,30.23,ENE,67,0.0,1.0,99,0.00,,,0.00,TxWx,2013-05-28 11:10:00,
2013-05-28 07:15:00,49.0,48.0,30.23,ENE,67,1.0,3.0,98,0.00,,,0.00,TxWx,2013-05-28 11:15:00,
2013-05-28 07:20:00,49.0,48.0,30.23,NE,45,0.0,0.0,98,0.00,,,0.00,TxWx,2013-05-28 11:20:00,
2013-05-28 07:25:00,49.0,48.0,30.23,NE,45,2.0,3.0,97,0.00,,,0.00,TxWx,2013-05-28 11:25:00,
2013-05-28 07:30:00,49.0,48.0,30.23,ENE,67,3.0,3.0,97,0.00,,,0.00,TxWx,2013-05-28 11:30:00,
2013-05-28 07:35:00,49.0,48.0,30.23,ENE,67,3.0,3.0,97,0.00,,,0.00,TxWx,2013-05-28 11:35:00,
2013-05-28 07:40:00,50.0,49.0,30.23,East,90,3.0,3.0,96,0.00,,,0.00,TxWx,2013-05-28 11:40:00,
2013-05-28 07:45:00,50.0,49.0,30.23,East,90,0.0,1.0,96,0.00,,,0.00,TxWx,2013-05-28 11:45:00,
2013-05-28 07:50:00,50.0,49.0,30.23,NE,45,2.0,3.0,95,0.00,,,0.00,TxWx,2013-05-28 11:50:00,
2013-05-28 07:55:00,51.0,49.0,30.23,NNW,337,1.0,2.0,95,0.00,,,0.00,TxWx,2013-05-28 11:55:00,
2013-05-28 08:01:00,51.0,49.0,30.23,NNE,22,2.0,2.0,94,0.00,,,0.00,TxWx,2013-05-28 12:01:00,
2013-05-28 08:06:00,51.0,49.0,30.23,North,0,1.0,3.0,93,0.00,,,0.00,TxWx,2013-05-28 12:06:00,
2013-05-28 08:11:00,52.0,50.0,30.23,NNE,22,2.0,4.0,92,0.00,,,0.00,TxWx,2013-05-28 12:11:00,
2013-05-28 08:16:00,52.0,49.0,30.23,NE,45,2.0,3.0,91,0.00,,,0.00,TxWx,2013-05-28 12:16:00,
2013-05-28 08:21:00,52.0,49.0,30.23,East,90,0.0,2.0,90,0.00,,,0.00,TxWx,2013-05-28 12:21:00,
2013-05-28 08:26:00,53.0,50.0,30.23,East,90,4.0,4.0,89,0.00,,,0.00,TxWx,2013-05-28 12:26:00,
2013-05-28 08:31:00,53.0,49.0,30.22,ENE,67,2.0,3.0,87,0.00,,,0.00,TxWx,2013-05-28 12:31:00,
2013-05-28 08:36:00,53.0,49.0,30.22,ESE,112,0.0,1.0,87,0.00,,,0.00,TxWx,2013-05-28 12:36:00,
2013-05-28 08:41:00,54.0,50.0,30.22,North,0,0.0,1.0,86,0.00,,,0.00,TxWx,2013-05-28 12:41:00,
2013-05-28 08:46:00,55.0,50.0,30.22,East,90,0.0,1.0,84,0.00,,,0.00,TxWx,2013-05-28 12:46:00,
2013-05-28 08:51:00,56.0,51.0,30.22,East,90,1.0,1.0,82,0.00,,,0.00,TxWx,2013-05-28 12:51:00,
2013-05-28 08:56:00,57.0,51.0,30.22,East,90,1.0,3.0,79,0.00,,,0.00,TxWx,2013-05-28 12:56:00,
2013-05-28 09:01:00,57.0,50.0,30.22,NNE,22,2.0,3.0,77,0.00,,,0.00,TxWx,2013-05-28 13:01:00,
2013-05-28 09:03:00,64.0,53.0,30.15,SSE,157,9.0,10.0,68,0.00,,,0.00,TxWx,2013-05-28 13:03:00,
2013-05-28 09:06:00,57.0,49.0,30.22,East,90,0.0,1.0,75,0.00,,,0.00,TxWx,2013-05-28 13:06:00,
2013-05-28 09:12:00,58.0,49.0,30.21,ENE,67,1.0,3.0,72,0.00,,,0.00,TxWx,2013-05-28 13:12:00,
2013-05-28 09:17:00,58.0,48.0,30.21,ENE,67,0.0,0.0,70,0.00,,,0.00,TxWx,2013-05-28 13:17:00,
2013-05-28 09:22:00,59.0,48.0,30.21,East,90,3.0,3.0,68,0.00,,,0.00,TxWx,2013-05-28 13:22:00,
2013-05-28 09:27:00,59.0,47.0,30.21,ENE,67,1.0,2.0,66,0.00,,,0.00,TxWx,2013-05-28 13:27:00,
2013-05-28 09:28:00,63.0,53.0,30.15,ESE,112,1.0,5.0,71,0.00,,,0.00,TxWx,2013-05-28 13:28:00,
2013-05-28 09:32:00,59.0,47.0,30.21,East,90,3.0,5.0,64,0.00,,,0.00,TxWx,2013-05-28 13:32:00,
2013-05-28 09:37:00,60.0,47.0,30.21,East,90,2.0,2.0,63,0.00,,,0.00,TxWx,2013-05-28 13:37:00,
2013-05-28 09:42:00,60.0,47.0,30.21,SSE,157,0.0,0.0,62,0.00,,,0.00,TxWx,2013-05-28 13:42:00,
2013-05-28 09:43:00,63.0,54.0,30.15,SSE,157,4.0,4.0,73,0.00,,,0.00,TxWx,2013-05-28 13:43:00,
2013-05-28 09:44:00,63.0,54.0,30.15,South,180,10.0,10.0,73,0.00,,,0.00,TxWx,2013-05-28 13:44:00,
2013-05-28 09:45:00,63.0,54.0,30.15,SSW,202,4.0,6.0,73,0.00,,,0.00,TxWx,2013-05-28 13:45:00,
2013-05-28 09:47:00,61.0,47.0,30.21,ESE,112,3.0,5.0,61,0.00,,,0.00,TxWx,2013-05-28 13:47:00,
2013-05-28 09:52:00,61.0,47.0,30.21,ENE,67,2.0,4.0,59,0.00,,,0.00,TxWx,2013-05-28 13:52:00,
2013-05-28 09:57:00,61.0,46.0,30.21,SSE,157,3.0,4.0,58,0.00,,,0.00,TxWx,2013-05-28 13:57:00,
2013-05-28 09:58:00,63.0,55.0,30.15,SSE,157,6.0,6.0,75,0.00,,,0.00,TxWx,2013-05-28 13:58:00,
2013-05-28 09:59:00,63.0,55.0,30.15,SE,135,2.0,6.0,75,0.00,,,0.00,TxWx,2013-05-28 13:59:00,
2013-05-28 10:02:00,61.0,46.0,30.21,ESE,112,3.0,4.0,58,0.00,,,0.00,TxWx,2013-05-28 14:02:00,
2013-05-28 10:07:00,62.0,47.0,30.21,East,90,0.0,1.0,58,0.00,,,0.00,TxWx,2013-05-28 14:07:00,
2013-05-28 10:12:00,63.0,47.0,30.21,SSE,157,4.0,5.0,57,0.00,,,0.00,TxWx,2013-05-28 14:12:00,
2013-05-28 10:17:00,63.0,47.0,30.21,NNE,22,1.0,1.0,56,0.00,,,0.00,TxWx,2013-05-28 14:17:00,
2013-05-28 10:22:00,64.0,47.0,30.21,East,90,6.0,6.0,55,0.00,,,0.00,TxWx,2013-05-28 14:22:00,
2013-05-28 10:28:00,64.0,47.0,30.21,ESE,112,3.0,6.0,54,0.00,,,0.00,TxWx,2013-05-28 14:28:00,
2013-05-28 10:33:00,64.0,47.0,30.21,SW,225,3.0,3.0,55,0.00,,,0.00,TxWx,2013-05-28 14:33:00,
2013-05-28 10:38:00,64.0,47.0,30.20,East,90,3.0,4.0,54,0.00,,,0.00,TxWx,2013-05-28 14:38:00,
2013-05-28 10:43:00,64.0,47.0,30.20,ESE,112,5.0,6.0,54,0.00,,,0.00,TxWx,2013-05-28 14:43:00,
2013-05-28 10:48:00,65.0,47.0,30.20,South,180,5.0,6.0,53,0.00,,,0.00,TxWx,2013-05-28 14:48:00,
2013-05-28 10:53:00,65.0,47.0,30.20,ENE,67,1.0,3.0,53,0.00,,,0.00,TxWx,2013-05-28 14:53:00,
2013-05-28 10:58:00,66.0,48.0,30.20,South,180,3.0,5.0,52,0.00,,,0.00,TxWx,2013-05-28 14:58:00,
2013-05-28 11:03:00,66.0,48.0,30.20,SE,135,3.0,4.0,53,0.00,,,0.00,TxWx,2013-05-28 15:03:00,
2013-05-28 11:08:00,66.0,48.0,30.19,East,90,6.0,7.0,52,0.00,,,0.00,TxWx,2013-05-28 15:08:00,
2013-05-28 11:13:00,66.0,48.0,30.19,SE,135,3.0,3.0,52,0.00,,,0.00,TxWx,2013-05-28 15:13:00,
2013-05-28 11:18:00,66.0,48.0,30.19,East,90,3.0,5.0,52,0.00,,,0.00,TxWx,2013-05-28 15:18:00,
2013-05-28 11:23:00,67.0,48.0,30.19,SSE,157,5.0,6.0,52,0.00,,,0.00,TxWx,2013-05-28 15:23:00,
2013-05-28 11:28:00,68.0,48.0,30.19,SSE,157,6.0,8.0,49,0.00,,,0.00,TxWx,2013-05-28 15:28:00,
2013-05-28 11:33:00,68.0,47.0,30.20,South,180,5.0,8.0,48,0.00,,,0.00,TxWx,2013-05-28 15:33:00,
2013-05-28 11:38:00,68.0,48.0,30.20,South,180,6.0,7.0,48,0.00,,,0.00,TxWx,2013-05-28 15:38:00,
2013-05-28 11:44:00,68.0,47.0,30.19,SSE,157,6.0,8.0,48,0.00,,,0.00,TxWx,2013-05-28 15:44:00,
2013-05-28 11:49:00,68.0,47.0,30.19,SE,135,4.0,6.0,47,0.00,,,0.00,TxWx,2013-05-28 15:49:00,
2013-05-28 11:54:00,69.0,48.0,30.19,South,180,8.0,8.0,47,0.00,,,0.00,TxWx,2013-05-28 15:54:00,
2013-05-28 11:59:00,69.0,47.0,30.19,SSE,157,3.0,3.0,46,0.00,,,0.00,TxWx,2013-05-28 15:59:00,
2013-05-28 12:04:00,69.0,47.0,30.19,SSE,157,4.0,7.0,45,0.00,,,0.00,TxWx,2013-05-28 16:04:00,
2013-05-28 12:09:00,70.0,47.0,30.19,South,180,7.0,8.0,44,0.00,,,0.00,TxWx,2013-05-28 16:09:00,
2013-05-28 12:14:00,70.0,47.0,30.18,SSE,157,5.0,6.0,44,0.00,,,0.00,TxWx,2013-05-28 16:14:00,
2013-05-28 12:19:00,70.0,46.0,30.18,SE,135,7.0,9.0,42,0.00,,,0.00,TxWx,2013-05-28 16:19:00,
2013-05-28 12:24:00,70.0,46.0,30.18,SSE,157,5.0,6.0,42,0.00,,,0.00,TxWx,2013-05-28 16:24:00,
2013-05-28 12:29:00,70.0,45.0,30.18,South,180,8.0,14.0,40,0.00,,,0.00,TxWx,2013-05-28 16:29:00,
2013-05-28 12:34:00,70.0,44.0,30.18,SSE,157,10.0,10.0,39,0.00,,,0.00,TxWx,2013-05-28 16:34:00,
2013-05-28 12:39:00,71.0,45.0,30.17,SSE,157,8.0,10.0,40,0.00,,,0.00,TxWx,2013-05-28 16:39:00,
2013-05-28 12:44:00,71.0,45.0,30.17,South,180,8.0,8.0,40,0.00,,,0.00,TxWx,2013-05-28 16:44:00,
2013-05-28 12:49:00,71.0,46.0,30.17,South,180,9.0,9.0,41,0.00,,,0.00,TxWx,2013-05-28 16:49:00,
2013-05-28 12:55:00,71.0,46.0,30.17,SE,135,3.0,4.0,42,0.00,,,0.00,TxWx,2013-05-28 16:55:00,
2013-05-28 13:00:00,71.0,45.0,30.17,SSE,157,8.0,8.0,39,0.00,,,0.00,TxWx,2013-05-28 17:00:00,
2013-05-28 13:05:00,71.0,46.0,30.16,South,180,6.0,8.0,41,0.00,,,0.00,TxWx,2013-05-28 17:05:00,
2013-05-28 13:10:00,72.0,46.0,30.17,South,180,5.0,8.0,40,0.00,,,0.00,TxWx,2013-05-28 17:10:00,
2013-05-28 13:15:00,71.0,45.0,30.17,SSE,157,8.0,10.0,40,0.00,,,0.00,TxWx,2013-05-28 17:15:00,
2013-05-28 13:20:00,72.0,47.0,30.16,SSE,157,8.0,11.0,41,0.00,,,0.00,TxWx,2013-05-28 17:20:00,
2013-05-28 13:25:00,72.0,47.0,30.16,SSE,157,10.0,10.0,41,0.00,,,0.00,TxWx,2013-05-28 17:25:00,
2013-05-28 13:30:00,72.0,47.0,30.16,South,180,6.0,8.0,41,0.00,,,0.00,TxWx,2013-05-28 17:30:00,
2013-05-28 13:35:00,71.0,46.0,30.16,South,180,6.0,8.0,41,0.00,,,0.00,TxWx,2013-05-28 17:35:00,
2013-05-28 13:40:00,72.0,47.0,30.16,South,180,6.0,8.0,42,0.00,,,0.00,TxWx,2013-05-28 17:40:00,
2013-05-28 13:45:00,72.0,47.0,30.16,SSE,157,4.0,5.0,42,0.00,,,0.00,TxWx,2013-05-28 17:45:00,
2013-05-28 13:50:00,72.0,48.0,30.16,SSE,157,4.0,7.0,42,0.00,,,0.00,TxWx,2013-05-28 17:50:00,
2013-05-28 13:55:00,72.0,48.0,30.16,South,180,10.0,12.0,43,0.00,,,0.00,TxWx,2013-05-28 17:55:00,
2013-05-28 14:00:00,72.0,48.0,30.16,SSE,157,8.0,10.0,43,0.00,,,0.00,TxWx,2013-05-28 18:00:00,
2013-05-28 14:06:00,71.0,47.0,30.16,ESE,112,6.0,11.0,43,0.00,,,0.00,TxWx,2013-05-28 18:06:00,
2013-05-28 14:11:00,72.0,48.0,30.16,SE,135,6.0,7.0,43,0.00,,,0.00,TxWx,2013-05-28 18:11:00,
2013-05-28 14:16:00,72.0,49.0,30.16,SSE,157,6.0,8.0,44,0.00,,,0.00,TxWx,2013-05-28 18:16:00,
2013-05-28 14:21:00,72.0,49.0,30.15,SSE,157,9.0,9.0,44,0.00,,,0.00,TxWx,2013-05-28 18:21:00,
2013-05-28 14:26:00,72.0,49.0,30.15,SE,135,3.0,5.0,44,0.00,,,0.00,TxWx,2013-05-28 18:26:00,
2013-05-28 14:31:00,71.0,48.0,30.15,South,180,7.0,10.0,44,0.00,,,0.00,TxWx,2013-05-28 18:31:00,
2013-05-28 14:36:00,71.0,48.0,30.16,South,180,8.0,10.0,44,0.00,,,0.00,TxWx,2013-05-28 18:36:00,
2013-05-28 14:41:00,71.0,48.0,30.16,South,180,6.0,6.0,44,0.00,,,0.00,TxWx,2013-05-28 18:41:00,
2013-05-28 14:46:00,71.0,48.0,30.15,SSE,157,7.0,10.0,44,0.00,,,0.00,TxWx,2013-05-28 18:46:00,
2013-05-28 14:51:00,71.0,49.0,30.15,South,180,10.0,11.0,45,0.00,,,0.00,TxWx,2013-05-28 18:51:00,
2013-05-28 14:56:00,71.0,49.0,30.15,South,180,3.0,7.0,45,0.00,,,0.00,TxWx,2013-05-28 18:56:00,
2013-05-28 15:01:00,71.0,48.0,30.15,SSW,202,8.0,11.0,44,0.00,,,0.00,TxWx,2013-05-28 19:01:00,
2013-05-28 15:02:00,61.0,58.0,30.12,SSE,157,3.0,4.0,92,0.00,,,0.00,TxWx,2013-05-28 19:02:00,
2013-05-28 15:03:00,61.0,58.0,30.12,SE,135,3.0,3.0,92,0.00,,,0.00,TxWx,2013-05-28 19:03:00,
2013-05-28 15:04:00,61.0,58.0,30.12,NNW,337,3.0,4.0,92,0.00,,,0.00,TxWx,2013-05-28 19:04:00,
2013-05-28 15:07:00,71.0,49.0,30.15,South,180,12.0,14.0,45,0.00,,,0.00,TxWx,2013-05-28 19:07:00,
2013-05-28 15:12:00,71.0,49.0,30.15,SW,225,5.0,7.0,46,0.00,,,0.00,TxWx,2013-05-28 19:12:00,
2013-05-28 15:17:00,70.0,48.0,30.15,SSE,157,5.0,8.0,46,0.00,,,0.00,TxWx,2013-05-28 19:17:00,
2013-05-28 15:22:00,71.0,49.0,30.15,SE,135,3.0,3.0,47,0.00,,,0.00,TxWx,2013-05-28 19:22:00,
2013-05-28 15:27:00,71.0,49.0,30.15,SSE,157,5.0,6.0,47,0.00,,,0.00,TxWx,2013-05-28 19:27:00,
2013-05-28 15:29:00,60.0,58.0,30.13,SSE,157,3.0,4.0,94,0.00,,,0.01,TxWx,2013-05-28 19:29:00,
2013-05-28 15:32:00,71.0,49.0,30.15,ESE,112,3.0,6.0,45,0.00,,,0.00,TxWx,2013-05-28 19:32:00,
2013-05-28 15:37:00,71.0,49.0,30.15,ESE,112,6.0,11.0,45,0.00,,,0.00,TxWx,2013-05-28 19:37:00,
2013-05-28 15:42:00,71.0,48.0,30.15,SSE,157,6.0,8.0,44,0.00,,,0.00,TxWx,2013-05-28 19:42:00,
2013-05-28 15:47:00,71.0,49.0,30.15,South,180,5.0,6.0,45,0.00,,,0.00,TxWx,2013-05-28 19:47:00,
2013-05-28 15:52:00,71.0,48.0,30.15,SSE,157,10.0,11.0,45,0.00,,,0.00,TxWx,2013-05-28 19:52:00,
2013-05-28 15:57:00,70.0,49.0,30.15,SSE,157,7.0,12.0,45,0.00,,,0.00,TxWx,2013-05-28 19:57:00,
2013-05-28 16:03:00,70.0,48.0,30.14,ESE,112,10.0,11.0,46,0.00,,,0.00,TxWx,2013-05-28 20:03:00,
2013-05-28 16:08:00,70.0,48.0,30.14,ESE,112,7.0,15.0,46,0.00,,,0.00,TxWx,2013-05-28 20:08:00,
2013-05-28 16:13:00,70.0,49.0,30.14,South,180,8.0,9.0,47,0.00,,,0.00,TxWx,2013-05-28 20:13:00,
2013-05-28 16:18:00,70.0,50.0,30.14,ESE,112,13.0,13.0,48,0.00,,,0.00,TxWx,2013-05-28 20:18:00,
2013-05-28 16:23:00,69.0,49.0,30.14,SSE,157,10.0,10.0,50,0.00,,,0.00,TxWx,2013-05-28 20:23:00,
2013-05-28 16:28:00,69.0,50.0,30.15,ESE,112,6.0,7.0,51,0.00,,,0.00,TxWx,2013-05-28 20:28:00,
2013-05-28 16:33:00,68.0,50.0,30.15,SSE,157,10.0,10.0,53,0.00,,,0.00,TxWx,2013-05-28 20:33:00,
2013-05-28 16:38:00,67.0,51.0,30.15,SSW,202,8.0,12.0,56,0.00,,,0.00,TxWx,2013-05-28 20:38:00,
2013-05-28 16:43:00,67.0,51.0,30.15,South,180,10.0,11.0,57,0.00,,,0.00,TxWx,2013-05-28 20:43:00,
2013-05-28 16:48:00,67.0,51.0,30.15,ESE,112,2.0,7.0,57,0.00,,,0.00,TxWx,2013-05-28 20:48:00,
2013-05-28 16:53:00,67.0,51.0,30.16,SE,135,10.0,18.0,57,0.00,,,0.00,TxWx,2013-05-28 20:53:00,
2013-05-28 16:58:00,66.0,51.0,30.16,South,180,7.0,11.0,58,0.00,,,0.00,TxWx,2013-05-28 20:58:00,
2013-05-28 17:03:00,66.0,51.0,30.15,ESE,112,4.0,10.0,58,0.00,,,0.00,TxWx,2013-05-28 21:03:00,
2013-05-28 17:08:00,66.0,51.0,30.16,ESE,112,5.0,6.0,58,0.00,,,0.00,TxWx,2013-05-28 21:08:00,
2013-05-28 17:10:00,59.0,59.0,30.08,South,180,5.0,5.0,100,0.60,,,0.20,TxWx,2013-05-28 21:10:00,
2013-05-28 17:11:00,59.0,59.0,30.08,South,180,3.0,4.0,100,0.60,,,0.20,TxWx,2013-05-28 21:11:00,
2013-05-28 17:12:00,59.0,59.0,30.09,South,180,4.0,8.0,100,0.60,,,0.20,TxWx,2013-05-28 21:12:00,
2013-05-28 17:13:00,59.0,59.0,30.08,SSE,157,3.0,4.0,100,0.60,,,0.20,TxWx,2013-05-28 21:13:00,
2013-05-28 17:14:00,65.0,51.0,30.16,SSE,157,9.0,11.0,60,0.00,,,0.00,TxWx,2013-05-28 21:14:00,
2013-05-28 17:15:00,59.0,59.0,30.08,SSW,202,3.0,3.0,100,0.60,,,0.21,TxWx,2013-05-28 21:15:00,
2013-05-28 17:16:00,59.0,59.0,30.08,SSE,157,1.0,2.0,100,0.60,,,0.21,TxWx,2013-05-28 21:16:00,
2013-05-28 17:19:00,65.0,51.0,30.15,SE,135,10.0,10.0,61,0.00,,,0.00,TxWx,2013-05-28 21:19:00,
2013-05-28 17:22:00,59.0,59.0,30.08,South,180,5.0,6.0,100,0.60,,,0.22,TxWx,2013-05-28 21:22:00,
2013-05-28 17:23:00,59.0,59.0,30.08,SW,225,4.0,4.0,100,0.60,,,0.22,TxWx,2013-05-28 21:23:00,
2013-05-28 17:24:00,65.0,51.0,30.15,ESE,112,3.0,5.0,61,0.00,,,0.00,TxWx,2013-05-28 21:24:00,
2013-05-28 17:25:00,59.0,59.0,30.08,SSE,157,3.0,5.0,100,0.60,,,0.26,TxWx,2013-05-28 21:25:00,
2013-05-28 17:26:00,59.0,59.0,30.07,SSE,157,3.0,4.0,100,0.60,,,0.28,TxWx,2013-05-28 21:26:00,
2013-05-28 17:27:00,59.0,59.0,30.07,ESE,112,1.0,3.0,100,0.60,,,0.32,TxWx,2013-05-28 21:27:00,
2013-05-28 17:28:00,59.0,59.0,30.07,ESE,112,2.0,3.0,100,0.60,,,0.33,TxWx,2013-05-28 21:28:00,
2013-05-28 17:29:00,65.0,52.0,30.15,SSE,157,5.0,5.0,63,0.00,,,0.00,TxWx,2013-05-28 21:29:00,
2013-05-28 17:30:00,59.0,59.0,30.07,SE,135,2.0,3.0,100,0.60,,,0.35,TxWx,2013-05-28 21:30:00,
2013-05-28 17:31:00,59.0,59.0,30.07,SSE,157,2.0,4.0,100,0.60,,,0.36,TxWx,2013-05-28 21:31:00,
2013-05-28 17:32:00,59.0,59.0,30.07,South,180,2.0,3.0,100,0.60,,,0.36,TxWx,2013-05-28 21:32:00,
2013-05-28 17:33:00,59.0,59.0,30.07,SSE,157,5.0,6.0,100,0.60,,,0.36,TxWx,2013-05-28 21:33:00,
2013-05-28 17:34:00,65.0,52.0,30.16,SSE,157,8.0,9.0,64,0.00,,,0.00,TxWx,2013-05-28 21:34:00,
2013-05-28 17:35:00,59.0,59.0,30.07,South,180,3.0,5.0,100,0.60,,,0.37,TxWx,2013-05-28 21:35:00,
2013-05-28 17:39:00,64.0,52.0,30.16,SSE,157,7.0,7.0,65,0.00,,,0.00,TxWx,2013-05-28 21:39:00,
2013-05-28 17:44:00,64.0,52.0,30.16,SE,135,8.0,10.0,66,0.00,,,0.00,TxWx,2013-05-28 21:44:00,
2013-05-28 17:49:00,64.0,52.0,30.15,ESE,112,3.0,9.0,66,0.00,,,0.00,TxWx,2013-05-28 21:49:00,
2013-05-28 17:54:00,64.0,53.0,30.15,SE,135,6.0,8.0,67,0.00,,,0.00,TxWx,2013-05-28 21:54:00,
2013-05-28 17:59:00,64.0,53.0,30.15,South,180,5.0,7.0,68,0.00,,,0.00,TxWx,2013-05-28 21:59:00,
2013-05-28 18:08:00,63.0,52.0,30.15,SSE,157,10.0,10.0,69,0.00,,,0.00,TxWx,2013-05-28 22:08:00,
2013-05-28 18:13:00,63.0,53.0,30.15,SSE,157,8.0,8.0,69,0.00,,,0.00,TxWx,2013-05-28 22:13:00,
2013-05-28 18:18:00,63.0,53.0,30.15,SSE,157,6.0,7.0,70,0.00,,,0.00,TxWx,2013-05-28 22:18:00,
2013-05-28 18:23:00,63.0,53.0,30.14,ESE,112,11.0,11.0,70,0.00,,,0.00,TxWx,2013-05-28 22:23:00,
2013-05-28 18:28:00,63.0,53.0,30.15,SSW,202,5.0,5.0,71,0.00,,,0.00,TxWx,2013-05-28 22:28:00,
2013-05-28 18:31:00,59.0,59.0,30.05,South,180,9.0,9.0,100,0.00,,,0.45,TxWx,2013-05-28 22:31:00,
2013-05-28 18:33:00,63.0,54.0,30.15,SSE,157,10.0,11.0,72,0.00,,,0.00,TxWx,2013-05-28 22:33:00,
2013-05-28 18:34:00,59.0,59.0,30.06,South,180,6.0,8.0,100,0.00,,,0.45,TxWx,2013-05-28 22:34:00,
2013-05-28 18:35:00,59.0,59.0,30.06,South,180,7.0,10.0,100,0.00,,,0.45,TxWx,2013-05-28 22:35:00,
2013-05-28 18:36:00,59.0,59.0,30.06,SE,135,8.0,8.0,100,0.00,,,0.45,TxWx,2013-05-28 22:36:00,
2013-05-28 18:37:00,59.0,59.0,30.05,SE,135,5.0,5.0,100,0.00,,,0.45,TxWx,2013-05-28 22:37:00,
2013-05-28 18:38:00,63.0,54.0,30.15,South,180,9.0,9.0,72,0.00,,,0.00,TxWx,2013-05-28 22:38:00,
2013-05-28 18:45:00,63.0,54.0,30.15,South,180,6.0,9.0,73,0.00,,,0.00,TxWx,2013-05-28 22:45:00,
2013-05-28 18:50:00,63.0,54.0,30.15,ESE,112,12.0,12.0,74,0.00,,,0.00,TxWx,2013-05-28 22:50:00,
2013-05-28 18:55:00,63.0,55.0,30.15,SSE,157,7.0,7.0,74,0.00,,,0.00,TxWx,2013-05-28 22:55:00,
2013-05-28 19:00:00,63.0,55.0,30.15,South,180,11.0,11.0,75,0.00,,,0.00,TxWx,2013-05-28 23:00:00,
2013-05-28 19:05:00,62.0,55.0,30.15,South,180,6.0,8.0,77,0.00,,,0.00,TxWx,2013-05-28 23:05:00,
2013-05-28 19:10:00,62.0,55.0,30.14,SE,135,11.0,14.0,77,0.00,,,0.00,TxWx,2013-05-28 23:10:00,
2013-05-28 19:15:00,62.0,55.0,30.14,South,180,2.0,5.0,78,0.00,,,0.00,TxWx,2013-05-28 23:15:00,
2013-05-28 19:20:00,62.0,55.0,30.14,SE,135,10.0,10.0,79,0.00,,,0.00,TxWx,2013-05-28 23:20:00,
2013-05-28 19:25:00,62.0,55.0,30.14,ENE,67,4.0,7.0,79,0.00,,,0.00,TxWx,2013-05-28 23:25:00,
2013-05-28 19:26:00,59.0,59.0,30.06,South,180,5.0,5.0,100,0.00,,,0.46,TxWx,2013-05-28 23:26:00,
2013-05-28 19:27:00,59.0,59.0,30.05,SSW,202,1.0,3.0,100,0.00,,,0.46,TxWx,2013-05-28 23:27:00,
2013-05-28 19:30:00,62.0,55.0,30.14,SE,135,13.0,13.0,79,0.00,,,0.00,TxWx,2013-05-28 23:30:00,
2013-05-28 19:35:00,62.0,56.0,30.13,SE,135,5.0,5.0,80,0.00,,,0.00,TxWx,2013-05-28 23:35:00,
2013-05-28 19:41:00,62.0,56.0,30.13,SSE,157,4.0,5.0,80,0.00,,,0.00,TxWx,2013-05-28 23:41:00,
2013-05-28 19:46:00,62.0,56.0,30.13,SE,135,6.0,8.0,81,0.00,,,0.00,TxWx,2013-05-28 23:46:00,
2013-05-28 19:51:00,62.0,56.0,30.13,SSE,157,5.0,5.0,81,0.00,,,0.00,TxWx,2013-05-28 23:51:00,
2013-05-28 19:56:00,62.0,56.0,30.13,South,180,6.0,6.0,82,0.00,,,0.00,TxWx,2013-05-28 23:56:00,
2013-05-28 20:01:00,62.0,56.0,30.13,SSE,157,2.0,2.0,82,0.00,,,0.00,TxWx,2013-05-29 00:01:00,
2013-05-28 20:06:00,61.0,56.0,30.13,SE,135,5.0,5.0,83,0.00,,,0.00,TxWx,2013-05-29 00:06:00,
2013-05-28 20:11:00,61.0,56.0,30.13,ESE,112,3.0,4.0,83,0.00,,,0.00,TxWx,2013-05-29 00:11:00,
2013-05-28 20:16:00,61.0,56.0,30.13,SSE,157,2.0,4.0,83,0.00,,,0.00,TxWx,2013-05-29 00:16:00,
2013-05-28 20:21:00,61.0,56.0,30.13,SSE,157,4.0,5.0,84,0.00,,,0.00,TxWx,2013-05-29 00:21:00,
2013-05-28 20:26:00,61.0,56.0,30.13,SE,135,6.0,6.0,84,0.00,,,0.00,TxWx,2013-05-29 00:26:00,
2013-05-28 20:31:00,61.0,56.0,30.12,ESE,112,3.0,5.0,85,0.00,,,0.00,TxWx,2013-05-29 00:31:00,
2013-05-28 20:36:00,61.0,56.0,30.13,SW,225,3.0,5.0,85,0.00,,,0.00,TxWx,2013-05-29 00:36:00,
2013-05-28 20:41:00,61.0,56.0,30.13,South,180,3.0,5.0,85,0.00,,,0.00,TxWx,2013-05-29 00:41:00,
2013-05-28 20:46:00,61.0,57.0,30.13,SE,135,0.0,1.0,86,0.00,,,0.00,TxWx,2013-05-29 00:46:00,
2013-05-28 20:51:00,61.0,57.0,30.13,SE,135,3.0,4.0,86,0.00,,,0.00,TxWx,2013-05-29 00:51:00,
2013-05-28 20:57:00,61.0,57.0,30.13,South,180,4.0,4.0,86,0.00,,,0.00,TxWx,2013-05-29 00:57:00,
2013-05-28 21:02:00,61.0,57.0,30.13,ESE,112,6.0,7.0,87,0.00,,,0.00,TxWx,2013-05-29 01:02:00,
2013-05-28 21:07:00,61.0,57.0,30.13,ESE,112,5.0,6.0,87,0.00,,,0.00,TxWx,2013-05-29 01:07:00,
2013-05-28 21:12:00,61.0,57.0,30.13,SSW,202,3.0,5.0,87,0.00,,,0.00,TxWx,2013-05-29 01:12:00,
2013-05-28 21:17:00,61.0,57.0,30.13,SSE,157,4.0,7.0,88,0.00,,,0.00,TxWx,2013-05-29 01:17:00,
2013-05-28 21:22:00,61.0,57.0,30.13,ESE,112,5.0,5.0,88,0.00,,,0.00,TxWx,2013-05-29 01:22:00,
2013-05-28 21:27:00,61.0,57.0,30.12,South,180,3.0,5.0,88,0.00,,,0.00,TxWx,2013-05-29 01:27:00,
2013-05-28 21:32:00,61.0,58.0,30.12,SE,135,1.0,1.0,89,0.00,,,0.00,TxWx,2013-05-29 01:32:00,
2013-05-28 21:37:00,61.0,58.0,30.13,SSE,157,2.0,4.0,89,0.00,,,0.00,TxWx,2013-05-29 01:37:00,
2013-05-28 21:42:00,61.0,58.0,30.13,South,180,5.0,6.0,89,0.00,,,0.00,TxWx,2013-05-29 01:42:00,
2013-05-28 21:47:00,61.0,58.0,30.13,SSE,157,4.0,5.0,89,0.00,,,0.00,TxWx,2013-05-29 01:47:00,
2013-05-28 21:52:00,61.0,58.0,30.13,SSE,157,5.0,5.0,89,0.00,,,0.00,TxWx,2013-05-29 01:52:00,
2013-05-28 21:53:00,59.0,59.0,30.07,South,180,0.0,1.0,100,0.00,,,0.46,TxWx,2013-05-29 01:53:00,
2013-05-28 21:54:00,59.0,59.0,30.07,SSE,157,1.0,3.0,100,0.00,,,0.46,TxWx,2013-05-29 01:54:00,
2013-05-28 21:57:00,61.0,58.0,30.13,South,180,2.0,3.0,90,0.00,,,0.00,TxWx,2013-05-29 01:57:00,
2013-05-28 22:02:00,61.0,58.0,30.14,SSE,157,4.0,4.0,90,0.00,,,0.00,TxWx,2013-05-29 02:02:00,
2013-05-28 22:05:00,59.0,59.0,30.06,ESE,112,2.0,3.0,100,0.00,,,0.46,TxWx,2013-05-29 02:05:00,
2013-05-28 22:06:00,60.0,60.0,30.06,South,180,3.0,4.0,100,0.00,,,0.46,TxWx,2013-05-29 02:06:00,
2013-05-28 22:07:00,61.0,58.0,30.14,SSE,157,3.0,4.0,90,0.00,,,0.00,TxWx,2013-05-29 02:07:00,
2013-05-28 22:08:00,59.0,59.0,30.06,SSE,157,3.0,4.0,100,0.00,,,0.46,TxWx,2013-05-29 02:08:00,
2013-05-28 22:13:00,61.0,58.0,30.13,South,180,3.0,4.0,90,0.00,,,0.00,TxWx,2013-05-29 02:13:00,
2013-05-28 22:18:00,61.0,58.0,30.13,South,180,6.0,6.0,90,0.00,,,0.00,TxWx,2013-05-29 02:18:00,
2013-05-28 22:23:00,61.0,58.0,30.13,South,180,5.0,5.0,90,0.00,,,0.00,TxWx,2013-05-29 02:23:00,
2013-05-28 22:28:00,61.0,58.0,30.13,SSE,157,4.0,5.0,90,0.00,,,0.00,TxWx,2013-05-29 02:28:00,
2013-05-28 22:33:00,61.0,58.0,30.13,SE,135,0.0,0.0,90,0.00,,,0.00,TxWx,2013-05-29 02:33:00,
2013-05-28 22:38:00,61.0,58.0,30.13,South,180,5.0,5.0,90,0.00,,,0.00,TxWx,2013-05-29 02:38:00,
2013-05-28 22:43:00,61.0,58.0,30.14,SSE,157,3.0,3.0,90,0.00,,,0.00,TxWx,2013-05-29 02:43:00,
2013-05-28 22:48:00,61.0,58.0,30.13,SSE,157,7.0,8.0,91,0.00,,,0.00,TxWx,2013-05-29 02:48:00,
2013-05-28 22:53:00,61.0,58.0,30.13,SE,135,3.0,3.0,91,0.00,,,0.00,TxWx,2013-05-29 02:53:00,
2013-05-28 22:58:00,61.0,58.0,30.13,SE,135,2.0,2.0,91,0.00,,,0.00,TxWx,2013-05-29 02:58:00,
2013-05-28 23:03:00,61.0,58.0,30.13,SSW,202,2.0,3.0,91,0.00,,,0.00,TxWx,2013-05-29 03:03:00,
2013-05-28 23:08:00,61.0,58.0,30.13,East,90,1.0,2.0,91,0.00,,,0.00,TxWx,2013-05-29 03:08:00,
2013-05-28 23:13:00,61.0,58.0,30.13,SSE,157,3.0,3.0,91,0.00,,,0.00,TxWx,2013-05-29 03:13:00,
2013-05-28 23:18:00,61.0,58.0,30.12,SE,135,4.0,7.0,91,0.00,,,0.00,TxWx,2013-05-29 03:18:00,
2013-05-28 23:23:00,61.0,58.0,30.12,SSE,157,5.0,5.0,91,0.00,,,0.00,TxWx,2013-05-29 03:23:00,
2013-05-28 23:29:00,61.0,58.0,30.12,SE,135,8.0,9.0,91,0.00,,,0.00,TxWx,2013-05-29 03:29:00,
2013-05-28 23:34:00,61.0,58.0,30.13,South,180,5.0,6.0,91,0.00,,,0.00,TxWx,2013-05-29 03:34:00,
2013-05-28 23:39:00,61.0,58.0,30.13,SSE,157,5.0,5.0,91,0.00,,,0.00,TxWx,2013-05-29 03:39:00,
2013-05-28 23:44:00,61.0,58.0,30.13,South,180,2.0,3.0,91,0.00,,,0.00,TxWx,2013-05-29 03:44:00,
2013-05-28 23:49:00,61.0,58.0,30.12,SE,135,4.0,4.0,91,0.00,,,0.00,TxWx,2013-05-29 03:49:00,
2013-05-28 23:54:00,61.0,58.0,30.12,SSE,157,4.0,5.0,92,0.00,,,0.00,TxWx,2013-05-29 03:54:00,
2013-05-28 23:59:00,61.0,58.0,30.12,SSE,157,5.0,6.0,92,0.00,,,0.00,TxWx,2013-05-29 03:59:00,